sensor_id;sensor_type;location;lat;lon;timestamp;pressure;altitude;pressure_sealevel;temperature
11792;BMP180;5953;52.372;9.918;2022-10-26T00:01:20;100911.00;;;15.20
11792;BMP180;5953;52.372;9.918;2022-10-26T00:03:48;100908.00;;;15.20
11792;BMP180;5953;52.372;9.918;2022-10-26T00:06:18;100908.00;;;15.00
11792;BMP180;5953;52.372;9.918;2022-10-26T00:08:46;100893.00;;;15.00
11792;BMP180;5953;52.372;9.918;2022-10-26T00:11:14;100903.00;;;14.90
11792;BMP180;5953;52.372;9.918;2022-10-26T00:13:43;100896.00;;;15.00
11792;BMP180;5953;52.372;9.918;2022-10-26T00:16:13;100902.00;;;14.90
11792;BMP180;5953;52.372;9.918;2022-10-26T00:18:43;100899.00;;;15.00
11792;BMP180;5953;52.372;9.918;2022-10-26T00:21:11;100904.00;;;15.00
11792;BMP180;5953;52.372;9.918;2022-10-26T00:23:39;100906.00;;;14.90
11792;BMP180;5953;52.372;9.918;2022-10-26T00:26:08;100908.00;;;14.80
11792;BMP180;5953;52.372;9.918;2022-10-26T00:28:36;100903.00;;;14.90
11792;BMP180;5953;52.372;9.918;2022-10-26T00:31:05;100913.00;;;14.80
11792;BMP180;5953;52.372;9.918;2022-10-26T00:33:33;100915.00;;;14.70
11792;BMP180;5953;52.372;9.918;2022-10-26T00:36:03;100910.00;;;14.70
11792;BMP180;5953;52.372;9.918;2022-10-26T00:38:30;100914.00;;;14.70
11792;BMP180;5953;52.372;9.918;2022-10-26T00:40:58;100922.00;;;14.60
11792;BMP180;5953;52.372;9.918;2022-10-26T00:43:37;100918.00;;;14.60
11792;BMP180;5953;52.372;9.918;2022-10-26T00:46:08;100913.00;;;14.70
11792;BMP180;5953;52.372;9.918;2022-10-26T00:48:41;100910.00;;;14.60
11792;BMP180;5953;52.372;9.918;2022-10-26T00:51:14;100918.00;;;14.60
11792;BMP180;5953;52.372;9.918;2022-10-26T00:53:44;100918.00;;;14.70
11792;BMP180;5953;52.372;9.918;2022-10-26T00:56:12;100901.00;;;14.60
11792;BMP180;5953;52.372;9.918;2022-10-26T00:58:40;100908.00;;;14.60
11792;BMP180;5953;52.372;9.918;2022-10-26T01:01:08;100902.00;;;14.50
11792;BMP180;5953;52.372;9.918;2022-10-26T01:03:37;100894.00;;;14.50
11792;BMP180;5953;52.372;9.918;2022-10-26T01:06:07;100905.00;;;14.40
11792;BMP180;5953;52.372;9.918;2022-10-26T01:08:36;100899.00;;;14.50
11792;BMP180;5953;52.372;9.918;2022-10-26T01:11:05;100897.00;;;14.40
11792;BMP180;5953;52.372;9.918;2022-10-26T01:13:33;100892.00;;;14.40
11792;BMP180;5953;52.372;9.918;2022-10-26T01:18:59;100897.00;;;14.30
11792;BMP180;5953;52.372;9.918;2022-10-26T01:21:50;100894.00;;;14.20
11792;BMP180;5953;52.372;9.918;2022-10-26T01:24:48;100890.00;;;14.20
11792;BMP180;5953;52.372;9.918;2022-10-26T01:27:23;100887.00;;;14.10
11792;BMP180;5953;52.372;9.918;2022-10-26T01:35:48;100866.00;;;14.10
11792;BMP180;5953;52.372;9.918;2022-10-26T01:38:23;100880.00;;;13.90
11792;BMP180;5953;52.372;9.918;2022-10-26T01:40:58;100873.00;;;14.00
11792;BMP180;5953;52.372;9.918;2022-10-26T01:43:30;100881.00;;;13.90
11792;BMP180;5953;52.372;9.918;2022-10-26T01:46:02;100876.00;;;14.00
11792;BMP180;5953;52.372;9.918;2022-10-26T01:48:31;100882.00;;;14.00
11792;BMP180;5953;52.372;9.918;2022-10-26T01:51:02;100877.00;;;13.80
11792;BMP180;5953;52.372;9.918;2022-10-26T01:53:30;100864.00;;;13.90
11792;BMP180;5953;52.372;9.918;2022-10-26T01:55:58;100882.00;;;13.70
11792;BMP180;5953;52.372;9.918;2022-10-26T01:58:50;100881.00;;;13.90
11792;BMP180;5953;52.372;9.918;2022-10-26T02:01:49;100883.00;;;13.90
11792;BMP180;5953;52.372;9.918;2022-10-26T02:04:31;100877.00;;;13.70
11792;BMP180;5953;52.372;9.918;2022-10-26T02:07:02;100880.00;;;13.80
11792;BMP180;5953;52.372;9.918;2022-10-26T02:09:39;100871.00;;;13.90
11792;BMP180;5953;52.372;9.918;2022-10-26T02:12:16;100859.00;;;13.90
11792;BMP180;5953;52.372;9.918;2022-10-26T02:14:48;100862.00;;;13.80
11792;BMP180;5953;52.372;9.918;2022-10-26T02:17:25;100858.00;;;13.80
11792;BMP180;5953;52.372;9.918;2022-10-26T02:19:58;100854.00;;;13.80
11792;BMP180;5953;52.372;9.918;2022-10-26T02:22:30;100865.00;;;13.80
11792;BMP180;5953;52.372;9.918;2022-10-26T02:25:00;100852.00;;;13.70
11792;BMP180;5953;52.372;9.918;2022-10-26T02:27:34;100859.00;;;13.80
11792;BMP180;5953;52.372;9.918;2022-10-26T02:30:05;100853.00;;;13.90
11792;BMP180;5953;52.372;9.918;2022-10-26T02:32:37;100850.00;;;13.90
11792;BMP180;5953;52.372;9.918;2022-10-26T02:35:07;100846.00;;;13.90
11792;BMP180;5953;52.372;9.918;2022-10-26T02:37:36;100843.00;;;13.90
11792;BMP180;5953;52.372;9.918;2022-10-26T02:40:09;100837.00;;;13.90
11792;BMP180;5953;52.372;9.918;2022-10-26T02:42:39;100813.00;;;13.90
11792;BMP180;5953;52.372;9.918;2022-10-26T02:45:11;100822.00;;;14.10
11792;BMP180;5953;52.372;9.918;2022-10-26T02:47:41;100835.00;;;14.10
11792;BMP180;5953;52.372;9.918;2022-10-26T02:50:09;100827.00;;;14.00
11792;BMP180;5953;52.372;9.918;2022-10-26T02:52:41;100827.00;;;14.00
11792;BMP180;5953;52.372;9.918;2022-10-26T02:55:13;100819.00;;;14.00
11792;BMP180;5953;52.372;9.918;2022-10-26T02:57:45;100825.00;;;14.10
11792;BMP180;5953;52.372;9.918;2022-10-26T03:00:16;100827.00;;;14.10
11792;BMP180;5953;52.372;9.918;2022-10-26T03:02:52;100825.00;;;14.20
11792;BMP180;5953;52.372;9.918;2022-10-26T03:05:23;100831.00;;;14.20
11792;BMP180;5953;52.372;9.918;2022-10-26T03:07:52;100823.00;;;14.10
11792;BMP180;5953;52.372;9.918;2022-10-26T03:10:20;100825.00;;;14.10
11792;BMP180;5953;52.372;9.918;2022-10-26T03:12:48;100825.00;;;14.10
11792;BMP180;5953;52.372;9.918;2022-10-26T03:15:17;100826.00;;;14.20
11792;BMP180;5953;52.372;9.918;2022-10-26T03:17:46;100818.00;;;14.30
11792;BMP180;5953;52.372;9.918;2022-10-26T03:20:14;100812.00;;;14.10
11792;BMP180;5953;52.372;9.918;2022-10-26T03:22:42;100822.00;;;14.20
11792;BMP180;5953;52.372;9.918;2022-10-26T03:25:10;100829.00;;;14.30
11792;BMP180;5953;52.372;9.918;2022-10-26T03:27:38;100822.00;;;14.40
11792;BMP180;5953;52.372;9.918;2022-10-26T03:30:06;100828.00;;;14.40
11792;BMP180;5953;52.372;9.918;2022-10-26T03:32:34;100824.00;;;14.40
11792;BMP180;5953;52.372;9.918;2022-10-26T03:35:04;100818.00;;;14.50
11792;BMP180;5953;52.372;9.918;2022-10-26T03:37:32;100814.00;;;14.40
11792;BMP180;5953;52.372;9.918;2022-10-26T03:40:00;100815.00;;;14.40
11792;BMP180;5953;52.372;9.918;2022-10-26T03:42:27;100797.00;;;14.40
11792;BMP180;5953;52.372;9.918;2022-10-26T03:44:59;100795.00;;;14.40
11792;BMP180;5953;52.372;9.918;2022-10-26T03:47:27;100797.00;;;14.30
11792;BMP180;5953;52.372;9.918;2022-10-26T03:49:55;100799.00;;;14.20
11792;BMP180;5953;52.372;9.918;2022-10-26T03:52:24;100801.00;;;14.20
11792;BMP180;5953;52.372;9.918;2022-10-26T03:54:52;100801.00;;;14.20
11792;BMP180;5953;52.372;9.918;2022-10-26T03:57:20;100794.00;;;14.20
11792;BMP180;5953;52.372;9.918;2022-10-26T03:59:48;100802.00;;;14.10
11792;BMP180;5953;52.372;9.918;2022-10-26T04:02:15;100795.00;;;14.10
11792;BMP180;5953;52.372;9.918;2022-10-26T04:04:43;100791.00;;;14.00
11792;BMP180;5953;52.372;9.918;2022-10-26T04:07:11;100797.00;;;14.00
11792;BMP180;5953;52.372;9.918;2022-10-26T04:09:40;100790.00;;;14.10
11792;BMP180;5953;52.372;9.918;2022-10-26T04:12:08;100794.00;;;14.10
11792;BMP180;5953;52.372;9.918;2022-10-26T04:14:36;100793.00;;;14.10
11792;BMP180;5953;52.372;9.918;2022-10-26T04:17:04;100795.00;;;14.20
11792;BMP180;5953;52.372;9.918;2022-10-26T04:19:31;100789.00;;;14.20
11792;BMP180;5953;52.372;9.918;2022-10-26T04:21:59;100789.00;;;14.20
11792;BMP180;5953;52.372;9.918;2022-10-26T04:24:27;100789.00;;;14.20
11792;BMP180;5953;52.372;9.918;2022-10-26T04:26:56;100787.00;;;14.20
11792;BMP180;5953;52.372;9.918;2022-10-26T04:29:24;100786.00;;;14.20
11792;BMP180;5953;52.372;9.918;2022-10-26T04:31:52;100794.00;;;14.10
11792;BMP180;5953;52.372;9.918;2022-10-26T04:34:19;100797.00;;;14.00
11792;BMP180;5953;52.372;9.918;2022-10-26T04:36:47;100792.00;;;13.90
11792;BMP180;5953;52.372;9.918;2022-10-26T04:39:15;100791.00;;;14.00
11792;BMP180;5953;52.372;9.918;2022-10-26T04:41:43;100798.00;;;14.00
11792;BMP180;5953;52.372;9.918;2022-10-26T04:44:12;100799.00;;;13.90
11792;BMP180;5953;52.372;9.918;2022-10-26T04:46:40;100792.00;;;14.00
11792;BMP180;5953;52.372;9.918;2022-10-26T04:49:08;100793.00;;;14.00
11792;BMP180;5953;52.372;9.918;2022-10-26T04:51:35;100790.00;;;13.90
11792;BMP180;5953;52.372;9.918;2022-10-26T04:54:03;100791.00;;;13.80
11792;BMP180;5953;52.372;9.918;2022-10-26T04:56:31;100798.00;;;13.80
11792;BMP180;5953;52.372;9.918;2022-10-26T04:58:59;100793.00;;;13.90
11792;BMP180;5953;52.372;9.918;2022-10-26T05:01:29;100790.00;;;13.90
11792;BMP180;5953;52.372;9.918;2022-10-26T05:03:57;100784.00;;;14.00
11792;BMP180;5953;52.372;9.918;2022-10-26T05:06:25;100784.00;;;14.00
11792;BMP180;5953;52.372;9.918;2022-10-26T05:08:53;100780.00;;;14.00
11792;BMP180;5953;52.372;9.918;2022-10-26T05:11:20;100782.00;;;14.20
11792;BMP180;5953;52.372;9.918;2022-10-26T05:13:48;100784.00;;;14.30
11792;BMP180;5953;52.372;9.918;2022-10-26T05:16:16;100787.00;;;14.30
11792;BMP180;5953;52.372;9.918;2022-10-26T05:18:47;100781.00;;;14.30
11792;BMP180;5953;52.372;9.918;2022-10-26T05:21:16;100790.00;;;14.30
11792;BMP180;5953;52.372;9.918;2022-10-26T05:23:48;100783.00;;;14.10
11792;BMP180;5953;52.372;9.918;2022-10-26T05:26:18;100780.00;;;14.00
11792;BMP180;5953;52.372;9.918;2022-10-26T05:28:46;100781.00;;;14.10
11792;BMP180;5953;52.372;9.918;2022-10-26T05:31:13;100782.00;;;14.10
11792;BMP180;5953;52.372;9.918;2022-10-26T05:33:41;100778.00;;;14.10
11792;BMP180;5953;52.372;9.918;2022-10-26T05:36:10;100788.00;;;14.00
11792;BMP180;5953;52.372;9.918;2022-10-26T05:38:38;100784.00;;;14.00
11792;BMP180;5953;52.372;9.918;2022-10-26T05:41:06;100789.00;;;14.00
11792;BMP180;5953;52.372;9.918;2022-10-26T05:43:34;100787.00;;;13.90
11792;BMP180;5953;52.372;9.918;2022-10-26T05:46:02;100787.00;;;14.00
11792;BMP180;5953;52.372;9.918;2022-10-26T05:48:30;100789.00;;;14.10
11792;BMP180;5953;52.372;9.918;2022-10-26T05:50:58;100789.00;;;14.20
11792;BMP180;5953;52.372;9.918;2022-10-26T05:53:28;100780.00;;;14.00
11792;BMP180;5953;52.372;9.918;2022-10-26T05:55:56;100786.00;;;14.10
11792;BMP180;5953;52.372;9.918;2022-10-26T05:58:25;100777.00;;;14.00
11792;BMP180;5953;52.372;9.918;2022-10-26T06:01:03;100784.00;;;14.00
11792;BMP180;5953;52.372;9.918;2022-10-26T06:03:49;100790.00;;;13.90
11792;BMP180;5953;52.372;9.918;2022-10-26T06:06:21;100790.00;;;13.90
11792;BMP180;5953;52.372;9.918;2022-10-26T06:08:51;100783.00;;;13.70
11792;BMP180;5953;52.372;9.918;2022-10-26T06:11:19;100788.00;;;13.60
11792;BMP180;5953;52.372;9.918;2022-10-26T06:13:48;100783.00;;;13.50
11792;BMP180;5953;52.372;9.918;2022-10-26T06:16:27;100797.00;;;13.40
11792;BMP180;5953;52.372;9.918;2022-10-26T06:19:03;100788.00;;;13.40
11792;BMP180;5953;52.372;9.918;2022-10-26T06:21:53;100795.00;;;13.50
11792;BMP180;5953;52.372;9.918;2022-10-26T06:24:32;100795.00;;;13.60
11792;BMP180;5953;52.372;9.918;2022-10-26T06:27:07;100798.00;;;13.60
11792;BMP180;5953;52.372;9.918;2022-10-26T06:29:49;100801.00;;;13.60
11792;BMP180;5953;52.372;9.918;2022-10-26T06:32:22;100793.00;;;13.70
11792;BMP180;5953;52.372;9.918;2022-10-26T06:34:53;100804.00;;;13.70
11792;BMP180;5953;52.372;9.918;2022-10-26T06:37:23;100804.00;;;13.70
11792;BMP180;5953;52.372;9.918;2022-10-26T06:39:54;100805.00;;;13.70
11792;BMP180;5953;52.372;9.918;2022-10-26T06:42:24;100808.00;;;13.70
11792;BMP180;5953;52.372;9.918;2022-10-26T06:44:52;100814.00;;;13.60
11792;BMP180;5953;52.372;9.918;2022-10-26T06:47:24;100814.00;;;13.50
11792;BMP180;5953;52.372;9.918;2022-10-26T06:50:02;100819.00;;;13.40
11792;BMP180;5953;52.372;9.918;2022-10-26T06:52:38;100816.00;;;13.60
11792;BMP180;5953;52.372;9.918;2022-10-26T06:55:12;100815.00;;;13.60
11792;BMP180;5953;52.372;9.918;2022-10-26T06:57:42;100817.00;;;13.60
11792;BMP180;5953;52.372;9.918;2022-10-26T07:00:16;100822.00;;;13.60
11792;BMP180;5953;52.372;9.918;2022-10-26T07:02:46;100826.00;;;13.60
11792;BMP180;5953;52.372;9.918;2022-10-26T07:05:15;100826.00;;;13.60
11792;BMP180;5953;52.372;9.918;2022-10-26T07:07:44;100811.00;;;13.60
11792;BMP180;5953;52.372;9.918;2022-10-26T07:10:14;100821.00;;;13.60
11792;BMP180;5953;52.372;9.918;2022-10-26T07:12:42;100810.00;;;13.80
11792;BMP180;5953;52.372;9.918;2022-10-26T07:15:10;100826.00;;;13.80
11792;BMP180;5953;52.372;9.918;2022-10-26T07:17:42;100799.00;;;13.90
11792;BMP180;5953;52.372;9.918;2022-10-26T07:20:11;100819.00;;;14.00
11792;BMP180;5953;52.372;9.918;2022-10-26T07:22:39;100829.00;;;14.10
11792;BMP180;5953;52.372;9.918;2022-10-26T07:25:08;100830.00;;;14.10
11792;BMP180;5953;52.372;9.918;2022-10-26T07:27:39;100832.00;;;14.20
11792;BMP180;5953;52.372;9.918;2022-10-26T07:30:08;100834.00;;;14.30
11792;BMP180;5953;52.372;9.918;2022-10-26T07:32:36;100828.00;;;14.40
11792;BMP180;5953;52.372;9.918;2022-10-26T07:35:04;100849.00;;;14.40
11792;BMP180;5953;52.372;9.918;2022-10-26T07:37:32;100838.00;;;14.50
11792;BMP180;5953;52.372;9.918;2022-10-26T07:40:00;100843.00;;;14.20
11792;BMP180;5953;52.372;9.918;2022-10-26T07:42:32;100839.00;;;14.30
11792;BMP180;5953;52.372;9.918;2022-10-26T07:45:04;100837.00;;;14.50
11792;BMP180;5953;52.372;9.918;2022-10-26T07:47:33;100843.00;;;14.60
11792;BMP180;5953;52.372;9.918;2022-10-26T07:50:00;100843.00;;;14.80
11792;BMP180;5953;52.372;9.918;2022-10-26T07:52:28;100838.00;;;14.70
11792;BMP180;5953;52.372;9.918;2022-10-26T07:54:56;100850.00;;;14.80
11792;BMP180;5953;52.372;9.918;2022-10-26T07:57:24;100847.00;;;14.80
11792;BMP180;5953;52.372;9.918;2022-10-26T07:59:52;100849.00;;;14.90
11792;BMP180;5953;52.372;9.918;2022-10-26T08:02:22;100853.00;;;15.00
11792;BMP180;5953;52.372;9.918;2022-10-26T08:04:50;100851.00;;;15.10
11792;BMP180;5953;52.372;9.918;2022-10-26T08:07:21;100852.00;;;15.30
11792;BMP180;5953;52.372;9.918;2022-10-26T08:09:51;100857.00;;;15.40
11792;BMP180;5953;52.372;9.918;2022-10-26T08:12:19;100861.00;;;15.30
11792;BMP180;5953;52.372;9.918;2022-10-26T08:14:47;100844.00;;;15.40
11792;BMP180;5953;52.372;9.918;2022-10-26T08:17:15;100853.00;;;15.60
11792;BMP180;5953;52.372;9.918;2022-10-26T08:19:46;100848.00;;;15.70
11792;BMP180;5953;52.372;9.918;2022-10-26T08:22:14;100852.00;;;15.80
11792;BMP180;5953;52.372;9.918;2022-10-26T08:24:42;100858.00;;;15.90
11792;BMP180;5953;52.372;9.918;2022-10-26T08:27:12;100855.00;;;16.00
11792;BMP180;5953;52.372;9.918;2022-10-26T08:29:40;100862.00;;;16.10
11792;BMP180;5953;52.372;9.918;2022-10-26T08:32:09;100869.00;;;15.90
11792;BMP180;5953;52.372;9.918;2022-10-26T08:34:37;100867.00;;;16.00
11792;BMP180;5953;52.372;9.918;2022-10-26T08:37:06;100868.00;;;16.00
11792;BMP180;5953;52.372;9.918;2022-10-26T08:39:33;100865.00;;;16.00
11792;BMP180;5953;52.372;9.918;2022-10-26T08:42:06;100856.00;;;16.00
11792;BMP180;5953;52.372;9.918;2022-10-26T08:44:40;100848.00;;;16.00
11792;BMP180;5953;52.372;9.918;2022-10-26T08:47:15;100862.00;;;16.20
11792;BMP180;5953;52.372;9.918;2022-10-26T08:49:49;100854.00;;;16.10
11792;BMP180;5953;52.372;9.918;2022-10-26T08:52:23;100852.00;;;16.20
11792;BMP180;5953;52.372;9.918;2022-10-26T08:54:53;100832.00;;;16.20
11792;BMP180;5953;52.372;9.918;2022-10-26T08:57:25;100830.00;;;16.20
11792;BMP180;5953;52.372;9.918;2022-10-26T08:59:59;100835.00;;;16.30
11792;BMP180;5953;52.372;9.918;2022-10-26T09:02:28;100838.00;;;16.30
11792;BMP180;5953;52.372;9.918;2022-10-26T09:04:57;100835.00;;;16.30
11792;BMP180;5953;52.372;9.918;2022-10-26T09:07:38;100838.00;;;16.10
11792;BMP180;5953;52.372;9.918;2022-10-26T09:10:16;100839.00;;;16.30
11792;BMP180;5953;52.372;9.918;2022-10-26T09:12:53;100817.00;;;16.30
11792;BMP180;5953;52.372;9.918;2022-10-26T09:15:27;100826.00;;;16.40
11792;BMP180;5953;52.372;9.918;2022-10-26T09:18:07;100832.00;;;16.50
11792;BMP180;5953;52.372;9.918;2022-10-26T09:20:50;100832.00;;;16.50
11792;BMP180;5953;52.372;9.918;2022-10-26T09:23:33;100839.00;;;16.50
11792;BMP180;5953;52.372;9.918;2022-10-26T09:26:04;100835.00;;;16.40
11792;BMP180;5953;52.372;9.918;2022-10-26T09:28:37;100833.00;;;16.80
11792;BMP180;5953;52.372;9.918;2022-10-26T09:31:12;100836.00;;;17.00
11792;BMP180;5953;52.372;9.918;2022-10-26T09:33:41;100830.00;;;17.10
11792;BMP180;5953;52.372;9.918;2022-10-26T09:36:11;100826.00;;;17.40
11792;BMP180;5953;52.372;9.918;2022-10-26T09:38:47;100838.00;;;17.70
11792;BMP180;5953;52.372;9.918;2022-10-26T09:41:21;100847.00;;;17.60
11792;BMP180;5953;52.372;9.918;2022-10-26T09:44:00;100836.00;;;17.50
11792;BMP180;5953;52.372;9.918;2022-10-26T09:46:34;100836.00;;;17.40
11792;BMP180;5953;52.372;9.918;2022-10-26T09:49:09;100847.00;;;17.80
11792;BMP180;5953;52.372;9.918;2022-10-26T09:51:38;100845.00;;;17.90
11792;BMP180;5953;52.372;9.918;2022-10-26T09:54:14;100857.00;;;17.90
11792;BMP180;5953;52.372;9.918;2022-10-26T09:56:43;100855.00;;;18.10
11792;BMP180;5953;52.372;9.918;2022-10-26T09:59:12;100854.00;;;17.90
11792;BMP180;5953;52.372;9.918;2022-10-26T10:01:41;100858.00;;;18.20
11792;BMP180;5953;52.372;9.918;2022-10-26T10:04:16;100851.00;;;18.20
11792;BMP180;5953;52.372;9.918;2022-10-26T10:06:46;100853.00;;;18.20
11792;BMP180;5953;52.372;9.918;2022-10-26T10:09:17;100851.00;;;18.50
11792;BMP180;5953;52.372;9.918;2022-10-26T10:11:48;100831.00;;;18.70
11792;BMP180;5953;52.372;9.918;2022-10-26T10:14:21;100854.00;;;18.80
11792;BMP180;5953;52.372;9.918;2022-10-26T10:16:52;100851.00;;;18.50
11792;BMP180;5953;52.372;9.918;2022-10-26T10:19:23;100852.00;;;18.60
11792;BMP180;5953;52.372;9.918;2022-10-26T10:21:54;100851.00;;;18.60
11792;BMP180;5953;52.372;9.918;2022-10-26T10:24:27;100851.00;;;18.70
11792;BMP180;5953;52.372;9.918;2022-10-26T10:26:57;100854.00;;;18.50
11792;BMP180;5953;52.372;9.918;2022-10-26T10:29:26;100845.00;;;18.80
11792;BMP180;5953;52.372;9.918;2022-10-26T10:31:55;100864.00;;;18.80
11792;BMP180;5953;52.372;9.918;2022-10-26T10:34:23;100858.00;;;19.00
11792;BMP180;5953;52.372;9.918;2022-10-26T10:36:51;100851.00;;;18.40
11792;BMP180;5953;52.372;9.918;2022-10-26T10:39:41;100862.00;;;18.90
11792;BMP180;5953;52.372;9.918;2022-10-26T10:42:16;100866.00;;;19.00
11792;BMP180;5953;52.372;9.918;2022-10-26T10:44:46;100851.00;;;19.10
11792;BMP180;5953;52.372;9.918;2022-10-26T10:47:22;100860.00;;;19.20
11792;BMP180;5953;52.372;9.918;2022-10-26T10:49:53;100855.00;;;19.40
11792;BMP180;5953;52.372;9.918;2022-10-26T10:52:24;100855.00;;;19.50
11792;BMP180;5953;52.372;9.918;2022-10-26T10:55:06;100860.00;;;19.40
11792;BMP180;5953;52.372;9.918;2022-10-26T10:57:48;100863.00;;;19.60
11792;BMP180;5953;52.372;9.918;2022-10-26T11:00:18;100871.00;;;19.70
11792;BMP180;5953;52.372;9.918;2022-10-26T11:03:20;100870.00;;;19.60
11792;BMP180;5953;52.372;9.918;2022-10-26T11:06:03;100870.00;;;19.40
11792;BMP180;5953;52.372;9.918;2022-10-26T11:08:36;100864.00;;;19.40
11792;BMP180;5953;52.372;9.918;2022-10-26T11:11:08;100871.00;;;19.60
11792;BMP180;5953;52.372;9.918;2022-10-26T11:13:40;100880.00;;;19.70
11792;BMP180;5953;52.372;9.918;2022-10-26T11:16:14;100868.00;;;19.50
11792;BMP180;5953;52.372;9.918;2022-10-26T11:18:47;100880.00;;;19.70
11792;BMP180;5953;52.372;9.918;2022-10-26T11:21:22;100880.00;;;20.00
11792;BMP180;5953;52.372;9.918;2022-10-26T11:23:59;100874.00;;;20.20
11792;BMP180;5953;52.372;9.918;2022-10-26T11:26:41;100866.00;;;20.30
11792;BMP180;5953;52.372;9.918;2022-10-26T11:29:20;100871.00;;;20.40
11792;BMP180;5953;52.372;9.918;2022-10-26T11:31:53;100869.00;;;20.40
11792;BMP180;5953;52.372;9.918;2022-10-26T11:34:29;100864.00;;;20.20
11792;BMP180;5953;52.372;9.918;2022-10-26T11:37:03;100875.00;;;20.30
11792;BMP180;5953;52.372;9.918;2022-10-26T11:39:37;100868.00;;;20.40
11792;BMP180;5953;52.372;9.918;2022-10-26T11:42:18;100860.00;;;20.50
11792;BMP180;5953;52.372;9.918;2022-10-26T11:44:50;100890.00;;;20.70
11792;BMP180;5953;52.372;9.918;2022-10-26T11:47:23;100887.00;;;20.90
11792;BMP180;5953;52.372;9.918;2022-10-26T11:49:59;100887.00;;;20.90
11792;BMP180;5953;52.372;9.918;2022-10-26T11:52:34;100887.00;;;20.90
11792;BMP180;5953;52.372;9.918;2022-10-26T11:55:08;100884.00;;;21.00
11792;BMP180;5953;52.372;9.918;2022-10-26T11:57:39;100882.00;;;20.90
11792;BMP180;5953;52.372;9.918;2022-10-26T12:00:13;100883.00;;;21.10
11792;BMP180;5953;52.372;9.918;2022-10-26T12:02:43;100878.00;;;21.30
11792;BMP180;5953;52.372;9.918;2022-10-26T12:05:19;100885.00;;;21.40
11792;BMP180;5953;52.372;9.918;2022-10-26T12:07:49;100892.00;;;21.40
11792;BMP180;5953;52.372;9.918;2022-10-26T12:10:24;100893.00;;;21.40
11792;BMP180;5953;52.372;9.918;2022-10-26T12:13:00;100891.00;;;21.50
11792;BMP180;5953;52.372;9.918;2022-10-26T12:15:33;100889.00;;;21.60
11792;BMP180;5953;52.372;9.918;2022-10-26T12:18:25;100891.00;;;21.50
11792;BMP180;5953;52.372;9.918;2022-10-26T12:21:17;100888.00;;;21.80
11792;BMP180;5953;52.372;9.918;2022-10-26T12:23:56;100890.00;;;21.80
11792;BMP180;5953;52.372;9.918;2022-10-26T12:26:52;100902.00;;;21.80
11792;BMP180;5953;52.372;9.918;2022-10-26T12:29:36;100892.00;;;21.90
11792;BMP180;5953;52.372;9.918;2022-10-26T12:35:42;100907.00;;;22.00
11792;BMP180;5953;52.372;9.918;2022-10-26T12:41:20;100898.00;;;22.10
11792;BMP180;5953;52.372;9.918;2022-10-26T12:43:48;100904.00;;;21.90
11792;BMP180;5953;52.372;9.918;2022-10-26T12:46:41;100901.00;;;22.10
11792;BMP180;5953;52.372;9.918;2022-10-26T12:52:20;100897.00;;;22.30
11792;BMP180;5953;52.372;9.918;2022-10-26T12:55:38;100900.00;;;22.30
11792;BMP180;5953;52.372;9.918;2022-10-26T12:58:29;100888.00;;;22.00
11792;BMP180;5953;52.372;9.918;2022-10-26T13:01:28;100893.00;;;22.10
11792;BMP180;5953;52.372;9.918;2022-10-26T13:04:10;100894.00;;;22.10
11792;BMP180;5953;52.372;9.918;2022-10-26T13:06:57;100894.00;;;22.00
11792;BMP180;5953;52.372;9.918;2022-10-26T13:09:32;100891.00;;;22.10
11792;BMP180;5953;52.372;9.918;2022-10-26T13:12:01;100892.00;;;22.20
11792;BMP180;5953;52.372;9.918;2022-10-26T13:14:32;100887.00;;;22.30
11792;BMP180;5953;52.372;9.918;2022-10-26T13:17:03;100899.00;;;22.30
11792;BMP180;5953;52.372;9.918;2022-10-26T13:19:43;100901.00;;;22.50
11792;BMP180;5953;52.372;9.918;2022-10-26T13:22:13;100894.00;;;22.50
11792;BMP180;5953;52.372;9.918;2022-10-26T13:24:47;100902.00;;;22.60
11792;BMP180;5953;52.372;9.918;2022-10-26T13:27:42;100905.00;;;22.80
11792;BMP180;5953;52.372;9.918;2022-10-26T13:30:44;100910.00;;;22.90
11792;BMP180;5953;52.372;9.918;2022-10-26T13:33:24;100903.00;;;22.70
11792;BMP180;5953;52.372;9.918;2022-10-26T13:36:13;100911.00;;;22.80
11792;BMP180;5953;52.372;9.918;2022-10-26T13:38:44;100899.00;;;22.90
11792;BMP180;5953;52.372;9.918;2022-10-26T13:41:21;100895.00;;;22.90
11792;BMP180;5953;52.372;9.918;2022-10-26T13:43:53;100899.00;;;22.90
11792;BMP180;5953;52.372;9.918;2022-10-26T13:46:26;100897.00;;;22.90
11792;BMP180;5953;52.372;9.918;2022-10-26T13:48:59;100897.00;;;22.90
11792;BMP180;5953;52.372;9.918;2022-10-26T13:51:38;100908.00;;;22.80
11792;BMP180;5953;52.372;9.918;2022-10-26T13:54:18;100897.00;;;22.80
11792;BMP180;5953;52.372;9.918;2022-10-26T13:56:58;100916.00;;;22.80
11792;BMP180;5953;52.372;9.918;2022-10-26T13:59:29;100912.00;;;22.90
11792;BMP180;5953;52.372;9.918;2022-10-26T14:02:05;100911.00;;;22.80
11792;BMP180;5953;52.372;9.918;2022-10-26T14:04:33;100906.00;;;22.80
11792;BMP180;5953;52.372;9.918;2022-10-26T14:07:04;100908.00;;;22.90
11792;BMP180;5953;52.372;9.918;2022-10-26T14:09:32;100898.00;;;22.70
11792;BMP180;5953;52.372;9.918;2022-10-26T14:12:00;100906.00;;;22.80
11792;BMP180;5953;52.372;9.918;2022-10-26T14:14:31;100897.00;;;22.50
11792;BMP180;5953;52.372;9.918;2022-10-26T14:16:59;100918.00;;;22.70
11792;BMP180;5953;52.372;9.918;2022-10-26T14:19:29;100917.00;;;22.60
11792;BMP180;5953;52.372;9.918;2022-10-26T14:21:57;100919.00;;;22.50
11792;BMP180;5953;52.372;9.918;2022-10-26T14:24:29;100917.00;;;22.50
11792;BMP180;5953;52.372;9.918;2022-10-26T14:27:14;100911.00;;;22.70
11792;BMP180;5953;52.372;9.918;2022-10-26T14:29:42;100916.00;;;22.40
11792;BMP180;5953;52.372;9.918;2022-10-26T14:32:21;100921.00;;;22.50
11792;BMP180;5953;52.372;9.918;2022-10-26T14:34:49;100930.00;;;22.50
11792;BMP180;5953;52.372;9.918;2022-10-26T14:37:25;100939.00;;;22.30
11792;BMP180;5953;52.372;9.918;2022-10-26T14:39:57;100937.00;;;22.10
11792;BMP180;5953;52.372;9.918;2022-10-26T14:42:28;100942.00;;;22.20
11792;BMP180;5953;52.372;9.918;2022-10-26T14:44:57;100931.00;;;22.20
11792;BMP180;5953;52.372;9.918;2022-10-26T14:47:27;100950.00;;;22.10
11792;BMP180;5953;52.372;9.918;2022-10-26T14:49:56;100958.00;;;22.20
11792;BMP180;5953;52.372;9.918;2022-10-26T14:52:29;100949.00;;;21.60
11792;BMP180;5953;52.372;9.918;2022-10-26T14:55:02;100946.00;;;22.00
11792;BMP180;5953;52.372;9.918;2022-10-26T14:57:32;100954.00;;;22.10